Albany, Pennsylvania
Current Conditions -  °F | °C
As of 1:54 AM on Sunday 23 Nov 2014 (Local Time) from KRDG Reporting Station
Clear Clear  
Wind Chill: 40°   Ceiling: Unl
Heat Index: 40°   Visibility: 10mi
Dew Point: 19°   Wind: 0mph
Humidity: 43%   Direction: NA
Pressure: 30.19"   Gusts: NA
Location:  40.6329°N, 75.8768°W
Report Text: KRDG 230654Z AUTO 00000KT 10SM CLR 04/M07 A3019 RMK AO2 SLP230 T00441072
Loading
Personal Weather Stations






























Interactive Weather Map New forecast layout! Learn more

10-Day Weather Forecast

Advertisements
Track Severe Weather on mobile